Time;durP1;ratioP1;P1;durP2;ratioP2;P2;SDS_P1;SDS_P2;PMS_P1;PMS_P2;Temp;Humidity;BMP_temperature;BMP_pressure;BME280_temperature;BME280_humidity;BME280_pressure;Samples;Min_cycle;Max_cycle;Signal;HPM_P1;HPM_P2
2022/11/25 00:00:26;;;;;;;16.27;3.00;;;8.00;99.90;;;;;;4974901;28;20027;-77
2022/11/25 00:02:52;;;;;;;13.90;3.25;;;8.00;99.90;;;;;;4975402;28;20023;-77
2022/11/25 00:05:17;;;;;;;10.52;2.90;;;7.90;99.90;;;;;;4975249;28;20086;-77
2022/11/25 00:07:43;;;;;;;8.73;2.65;;;8.00;99.90;;;;;;4981910;28;20057;-77
2022/11/25 00:10:08;;;;;;;14.07;3.72;;;8.00;99.90;;;;;;5014105;28;20026;-77
2022/11/25 00:12:34;;;;;;;10.57;2.50;;;8.00;99.90;;;;;;4995115;28;20041;-77
2022/11/25 00:15:00;;;;;;;8.20;2.15;;;8.00;99.90;;;;;;4994372;28;20480;-77
2022/11/25 00:17:25;;;;;;;14.00;3.13;;;8.00;99.90;;;;;;4994481;28;20026;-77
2022/11/25 00:19:51;;;;;;;9.05;2.22;;;8.00;99.90;;;;;;4994426;28;20073;-77
2022/11/25 00:22:16;;;;;;;13.10;2.40;;;8.00;99.90;;;;;;4976822;28;20043;-77
2022/11/25 00:24:42;;;;;;;10.70;2.30;;;8.10;99.90;;;;;;4994293;28;20440;-77
2022/11/25 00:27:08;;;;;;;8.93;4.07;;;8.00;99.90;;;;;;4994243;28;20022;-77
2022/11/25 00:29:34;;;;;;;11.52;2.58;;;8.00;99.90;;;;;;4994224;28;20454;-77
2022/11/25 00:31:59;;;;;;;8.73;2.25;;;8.00;99.90;;;;;;4988717;28;20026;-77
2022/11/25 00:34:25;;;;;;;10.73;2.95;;;8.10;99.90;;;;;;4981710;28;20027;-77
2022/11/25 00:36:52;;;;;;;9.98;2.67;;;8.20;99.90;;;;;;4974742;28;20351;-77
2022/11/25 00:39:18;;;;;;;15.52;2.65;;;8.20;99.90;;;;;;4974970;28;20023;-77
2022/11/25 00:44:36;;;;;;;11.18;2.38;;;8.20;99.90;;;;;;4974696;28;20041;-77
2022/11/25 00:47:05;;;;;;;15.43;2.75;;;8.20;99.90;;;;;;4980645;28;20046;-78
2022/11/25 00:49:31;;;;;;;6.47;2.33;;;8.20;99.90;;;;;;4992666;28;20382;-77
2022/11/25 00:51:57;;;;;;;8.18;2.67;;;8.20;99.90;;;;;;4993809;28;20023;-77
2022/11/25 00:54:23;;;;;;;10.85;2.60;;;8.10;99.90;;;;;;4993557;28;20025;-77
2022/11/25 00:56:49;;;;;;;16.70;2.58;;;8.10;99.90;;;;;;4987562;28;20546;-77
2022/11/25 00:59:15;;;;;;;10.45;2.58;;;8.10;99.90;;;;;;5013391;28;20022;-77
2022/11/25 01:01:40;;;;;;;16.70;4.43;;;8.20;99.90;;;;;;4995139;28;20164;-77
2022/11/25 01:04:07;;;;;;;13.73;3.22;;;8.20;99.90;;;;;;4993552;28;20030;-77
2022/11/25 01:06:34;;;;;;;8.18;2.42;;;8.20;99.90;;;;;;4993378;28;20034;-77
2022/11/25 01:08:59;;;;;;;13.68;2.58;;;8.20;99.90;;;;;;4993415;28;20041;-77
2022/11/25 01:11:25;;;;;;;13.13;2.90;;;8.10;99.90;;;;;;4993382;28;20377;-77
2022/11/25 01:13:53;;;;;;;10.75;2.40;;;8.20;99.90;;;;;;4992680;28;20077;-77
2022/11/25 01:16:20;;;;;;;10.90;2.33;;;8.10;99.90;;;;;;4993588;28;20027;-77
2022/11/25 01:18:46;;;;;;;13.93;3.70;;;8.10;99.90;;;;;;4993375;28;20019;-77
2022/11/25 01:21:14;;;;;;;10.27;2.78;;;8.20;99.90;;;;;;4993334;28;20042;-77
2022/11/25 01:23:41;;;;;;;12.48;2.33;;;8.20;99.90;;;;;;4993144;28;20097;-77
2022/11/25 01:26:13;;;;;;;13.40;2.88;;;8.20;99.90;;;;;;4993123;28;20030;-77
2022/11/25 01:28:38;;;;;;;16.08;2.90;;;8.20;99.90;;;;;;4993261;28;20507;-77
2022/11/25 01:31:07;;;;;;;10.98;2.88;;;8.20;99.90;;;;;;4975691;28;20030;-77
2022/11/25 01:33:33;;;;;;;10.73;2.15;;;8.30;99.90;;;;;;4993414;28;20030;-77
2022/11/25 01:36:04;;;;;;;9.77;2.33;;;8.30;99.90;;;;;;4991644;28;20030;-78
2022/11/25 01:38:31;;;;;;;15.90;3.05;;;8.20;99.90;;;;;;4991271;28;20022;-77
2022/11/25 01:40:57;;;;;;;16.80;2.90;;;8.20;99.90;;;;;;4992000;28;20041;-78
2022/11/25 01:43:24;;;;;;;10.65;2.78;;;8.30;99.90;;;;;;4993228;28;20093;-78
2022/11/25 01:45:50;;;;;;;11.38;2.55;;;8.30;99.90;;;;;;4992864;28;20030;-77
2022/11/25 01:48:19;;;;;;;12.57;3.53;;;8.20;99.90;;;;;;4992711;28;20108;-78
2022/11/25 01:50:47;;;;;;;10.07;2.47;;;8.30;99.90;;;;;;4993045;28;20022;-77
2022/11/25 01:53:15;;;;;;;12.15;2.78;;;8.30;99.90;;;;;;4973554;28;20035;-77
2022/11/25 01:55:48;;;;;;;13.98;3.22;;;8.30;99.90;;;;;;4973478;28;20031;-77
2022/11/25 01:58:22;;;;;;;12.88;2.42;;;8.30;99.90;;;;;;4972242;28;20374;-77
2022/11/25 02:00:51;;;;;;;13.25;3.33;;;8.30;99.90;;;;;;4973630;28;20181;-77
2022/11/25 02:03:26;;;;;;;11.35;2.38;;;8.30;99.90;;;;;;4973363;28;20034;-77
2022/11/25 02:06:05;;;;;;;15.10;2.67;;;8.30;99.90;;;;;;4973521;28;20027;-78
2022/11/25 02:08:31;;;;;;;9.68;2.45;;;8.20;99.90;;;;;;4973558;28;20058;-77
2022/11/25 02:10:59;;;;;;;11.63;3.20;;;8.30;99.90;;;;;;4973417;28;20027;-77
2022/11/25 02:13:25;;;;;;;14.55;3.15;;;8.30;99.90;;;;;;4973336;28;20031;-78
2022/11/25 02:15:51;;;;;;;10.25;2.38;;;8.30;99.90;;;;;;4973377;28;20035;-78
2022/11/25 02:18:17;;;;;;;11.98;2.90;;;8.30;99.90;;;;;;4973478;28;20366;-77
2022/11/25 02:20:42;;;;;;;10.68;2.47;;;8.30;76.40;;;;;;4973532;28;20397;-78
2022/11/25 02:23:24;;;;;;;9.50;2.45;;;8.30;99.90;;;;;;4973149;28;20481;-77
2022/11/25 02:25:50;;;;;;;13.77;3.65;;;8.30;99.90;;;;;;4977394;28;20078;-78
2022/11/25 02:28:28;;;;;;;14.85;3.08;;;8.40;99.90;;;;;;4977144;28;20042;-77
2022/11/25 02:30:54;;;;;;;14.57;2.92;;;8.30;99.90;;;;;;4977494;28;20019;-78
2022/11/25 02:33:20;;;;;;;14.45;2.90;;;8.30;99.90;;;;;;4977201;28;20019;-77
2022/11/25 02:36:14;;;;;;;9.55;2.40;;;8.40;99.90;;;;;;4977202;28;20045;-78
2022/11/25 02:38:44;;;;;;;14.10;2.83;;;8.40;99.90;;;;;;4977042;28;20394;-78
2022/11/25 02:41:12;;;;;;;17.17;2.65;;;8.40;99.90;;;;;;4977207;28;20478;-77
2022/11/25 02:43:38;;;;;;;12.45;2.33;;;8.40;1.00;;;;;;4977017;28;20018;-78
2022/11/25 02:46:09;;;;;;;19.73;2.53;;;8.40;84.90;;;;;;4977007;28;20033;-78
2022/11/25 02:48:37;;;;;;;18.75;3.60;;;8.40;99.90;;;;;;4976706;28;20046;-78
2022/11/25 02:51:04;;;;;;;15.98;3.50;;;8.40;99.90;;;;;;4976949;28;20054;-77
2022/11/25 02:53:30;;;;;;;14.48;3.00;;;8.40;99.90;;;;;;4979055;28;20058;-77
2022/11/25 02:55:55;;;;;;;7.68;2.08;;;8.40;99.90;;;;;;4996382;28;20112;-77
2022/11/25 02:58:21;;;;;;;8.02;2.63;;;8.40;99.90;;;;;;4996383;28;20022;-77
2022/11/25 03:00:48;;;;;;;8.77;2.63;;;8.40;99.90;;;;;;4996586;28;20027;-78
2022/11/25 03:03:14;;;;;;;10.07;2.42;;;8.40;99.90;;;;;;4996672;28;20085;-78
2022/11/25 03:05:40;;;;;;;17.60;3.08;;;8.40;99.90;;;;;;4996314;28;20030;-78
2022/11/25 03:08:06;;;;;;;11.60;2.78;;;8.40;99.90;;;;;;4996362;28;20033;-78
2022/11/25 03:10:32;;;;;;;12.18;2.70;;;8.40;99.90;;;;;;4996272;28;20041;-78
2022/11/25 03:12:58;;;;;;;13.48;2.90;;;8.50;99.90;;;;;;4996140;28;20010;-77
2022/11/25 03:15:24;;;;;;;9.25;2.47;;;8.40;99.90;;;;;;4978865;28;20485;-78
2022/11/25 03:17:50;;;;;;;11.27;2.70;;;8.40;99.90;;;;;;4996147;28;20045;-77
2022/11/25 03:20:16;;;;;;;12.43;3.45;;;8.40;99.90;;;;;;4996269;28;20456;-78
2022/11/25 03:22:42;;;;;;;11.80;2.60;;;8.40;99.90;;;;;;4995739;28;20050;-77
2022/11/25 03:25:09;;;;;;;14.25;2.70;;;8.40;99.90;;;;;;4995833;28;20058;-77
2022/11/25 03:27:35;;;;;;;13.13;2.85;;;8.40;99.90;;;;;;4976211;28;20470;-78
2022/11/25 03:30:01;;;;;;;11.85;3.10;;;8.40;99.90;;;;;;4985540;28;20405;-78
2022/11/25 03:32:27;;;;;;;14.02;2.78;;;8.40;99.90;;;;;;4996211;28;20050;-78
2022/11/25 03:34:52;;;;;;;11.40;2.75;;;8.40;99.90;;;;;;4986410;28;20106;-78
2022/11/25 03:37:18;;;;;;;12.07;3.28;;;8.50;99.90;;;;;;4975790;28;20482;-78
2022/11/25 03:39:45;;;;;;;9.90;3.35;;;8.50;99.90;;;;;;4976166;28;20034;-78
2022/11/25 03:42:10;;;;;;;9.15;2.63;;;8.40;99.90;;;;;;4976250;28;20353;-77
2022/11/25 03:44:36;;;;;;;10.15;2.53;;;8.50;99.90;;;;;;4975974;28;20580;-78
2022/11/25 03:47:02;;;;;;;11.68;3.53;;;8.50;99.90;;;;;;4975818;28;20055;-78
2022/11/25 03:49:27;;;;;;;7.72;3.35;;;8.50;99.90;;;;;;4993597;28;20081;-77
2022/11/25 03:51:53;;;;;;;10.77;2.88;;;8.40;99.90;;;;;;4995448;28;20026;-78
2022/11/25 03:54:18;;;;;;;13.00;3.17;;;8.50;99.90;;;;;;4995245;28;20397;-78
2022/11/25 03:56:44;;;;;;;11.48;3.25;;;8.50;99.90;;;;;;4995206;28;20034;-78
2022/11/25 03:59:10;;;;;;;13.23;3.63;;;8.50;99.90;;;;;;4995053;28;20018;-77
2022/11/25 04:01:36;;;;;;;12.40;3.42;;;8.50;99.90;;;;;;4977742;28;20648;-78
2022/11/25 04:04:02;;;;;;;11.18;3.42;;;8.50;99.90;;;;;;4995271;28;20678;-78
2022/11/25 04:06:29;;;;;;;8.07;2.70;;;8.50;99.90;;;;;;4994902;28;20030;-78
2022/11/25 04:08:54;;;;;;;11.05;3.15;;;8.50;99.90;;;;;;4994978;28;20072;-78
2022/11/25 04:11:20;;;;;;;10.00;3.22;;;8.50;99.90;;;;;;4995202;28;20101;-78
2022/11/25 04:13:46;;;;;;;16.08;4.05;;;8.50;99.90;;;;;;4994955;28;20022;-78
2022/11/25 04:16:20;;;;;;;12.85;3.50;;;8.50;99.90;;;;;;4994790;28;20026;-78
2022/11/25 04:18:46;;;;;;;9.15;3.50;;;8.40;99.90;;;;;;4994863;28;20022;-78
2022/11/25 04:21:12;;;;;;;12.90;2.97;;;8.40;99.90;;;;;;4995082;28;20029;-78
2022/11/25 04:23:37;;;;;;;11.52;3.28;;;8.40;99.90;;;;;;4973998;28;20351;-78
2022/11/25 04:26:03;;;;;;;13.43;4.15;;;8.30;99.90;;;;;;4975219;28;20034;-77
2022/11/25 04:28:29;;;;;;;11.75;4.72;;;8.40;99.90;;;;;;4984732;28;20085;-78
2022/11/25 04:30:54;;;;;;;12.45;3.83;;;8.30;99.90;;;;;;4997627;28;20081;-78
2022/11/25 04:33:20;;;;;;;12.55;3.70;;;8.20;99.90;;;;;;5014476;28;20088;-78
2022/11/25 04:35:46;;;;;;;15.13;4.88;;;8.20;99.90;;;;;;5014173;28;20030;-78
2022/11/25 04:38:12;;;;;;;12.35;3.65;;;8.30;99.90;;;;;;5014021;28;20060;-78
2022/11/25 04:40:38;;;;;;;11.63;3.83;;;8.20;99.90;;;;;;5013922;28;20057;-77
2022/11/25 04:43:03;;;;;;;13.57;4.20;;;8.20;99.90;;;;;;5013860;28;20100;-78
2022/11/25 04:45:29;;;;;;;14.48;4.13;;;8.20;99.90;;;;;;4998014;28;20073;-77
2022/11/25 04:47:54;;;;;;;12.05;4.35;;;8.20;99.90;;;;;;4990925;28;20070;-78
2022/11/25 04:50:22;;;;;;;13.55;4.60;;;8.20;99.90;;;;;;4974830;28;20034;-78
2022/11/25 04:52:47;;;;;;;16.08;4.15;;;8.20;99.90;;;;;;4984085;28;20026;-78
2022/11/25 04:55:13;;;;;;;21.05;4.72;;;8.20;99.90;;;;;;4994211;28;20122;-77
2022/11/25 04:57:39;;;;;;;16.05;4.53;;;8.20;99.90;;;;;;4994385;28;20085;-77
2022/11/25 05:00:06;;;;;;;14.35;5.20;;;8.30;99.90;;;;;;4976942;28;20026;-78
2022/11/25 05:02:31;;;;;;;17.15;4.60;;;8.30;99.90;;;;;;4994490;28;20037;-78
2022/11/25 05:04:57;;;;;;;13.30;4.50;;;8.30;99.90;;;;;;4994323;28;20026;-77
2022/11/25 05:07:24;;;;;;;21.95;5.07;;;8.20;99.90;;;;;;4994183;28;20023;-78
2022/11/25 05:09:50;;;;;;;15.60;4.15;;;8.30;99.90;;;;;;4978009;28;20462;-78
2022/11/25 05:12:22;;;;;;;13.40;4.38;;;8.20;99.90;;;;;;4974816;28;20165;-78
2022/11/25 05:14:48;;;;;;;10.95;4.30;;;8.10;99.90;;;;;;4974413;28;20566;-78
2022/11/25 05:17:17;;;;;;;14.93;4.25;;;8.30;99.90;;;;;;4974219;28;20544;-78
2022/11/25 05:19:43;;;;;;;15.25;4.50;;;8.40;99.90;;;;;;4988684;28;20428;-77
2022/11/25 05:22:17;;;;;;;14.48;3.90;;;8.40;99.90;;;;;;4993765;28;20461;-77
2022/11/25 05:24:43;;;;;;;12.15;3.95;;;8.40;99.90;;;;;;4992650;28;20045;-77
2022/11/25 05:27:09;;;;;;;10.75;4.00;;;8.40;99.90;;;;;;4993586;28;20035;-78
2022/11/25 05:29:36;;;;;;;10.77;4.15;;;8.40;99.90;;;;;;4993742;28;20041;-78
2022/11/25 05:32:03;;;;;;;14.32;4.85;;;8.50;99.90;;;;;;4993900;28;20034;-77
2022/11/25 05:34:29;;;;;;;13.80;4.20;;;8.40;99.90;;;;;;4993519;28;20019;-78
2022/11/25 05:36:55;;;;;;;11.98;4.18;;;8.60;99.90;;;;;;4993483;28;20034;-78
2022/11/25 05:39:21;;;;;;;14.93;3.97;;;8.60;99.90;;;;;;4993473;28;20089;-77
2022/11/25 05:41:46;;;;;;;15.00;3.85;;;8.60;99.90;;;;;;4993160;28;20026;-77
2022/11/25 05:44:12;;;;;;;15.85;3.70;;;8.60;99.90;;;;;;4993175;28;20030;-78
2022/11/25 05:46:38;;;;;;;14.00;3.90;;;8.50;99.90;;;;;;4993101;28;20496;-78
2022/11/25 05:49:03;;;;;;;13.82;3.85;;;8.40;99.90;;;;;;4970575;28;20060;-77
2022/11/25 05:51:29;;;;;;;10.98;4.10;;;8.30;99.90;;;;;;4974058;28;20042;-77
2022/11/25 05:53:55;;;;;;;12.93;3.40;;;8.20;99.90;;;;;;4956193;28;20030;-78
2022/11/25 05:56:21;;;;;;;14.93;3.55;;;8.30;99.90;;;;;;4973486;28;20030;-77
2022/11/25 05:58:46;;;;;;;14.43;4.35;;;8.30;99.90;;;;;;4975902;28;20500;-77
2022/11/25 06:01:13;;;;;;;17.15;3.65;;;8.10;99.90;;;;;;4973400;28;20031;-77
2022/11/25 06:03:40;;;;;;;13.98;3.30;;;8.10;99.90;;;;;;4973272;28;20034;-77
2022/11/25 06:06:07;;;;;;;15.35;3.38;;;8.00;99.90;;;;;;4973134;28;20031;-77
2022/11/25 06:08:34;;;;;;;11.70;3.80;;;7.90;99.90;;;;;;4973564;28;20473;-78
2022/11/25 06:11:06;;;;;;;11.02;3.90;;;7.80;99.90;;;;;;4986207;28;20026;-77
2022/11/25 06:13:32;;;;;;;15.07;4.00;;;7.70;99.90;;;;;;4979978;28;20073;-77
2022/11/25 06:15:58;;;;;;;10.98;3.30;;;7.50;99.90;;;;;;4973191;28;20101;-77
2022/11/25 06:18:23;;;;;;;12.38;4.13;;;7.60;99.90;;;;;;4973427;28;20050;-77
2022/11/25 06:20:58;;;;;;;13.60;3.28;;;7.40;99.90;;;;;;4973167;28;20023;-77
2022/11/25 06:23:24;;;;;;;10.60;3.53;;;7.20;99.90;;;;;;4973252;28;20030;-78
2022/11/25 06:25:50;;;;;;;13.13;3.50;;;7.30;85.90;;;;;;4978532;28;20035;-77
2022/11/25 06:28:16;;;;;;;12.00;3.45;;;7.20;68.20;;;;;;4973755;28;20138;-77
2022/11/25 06:30:42;;;;;;;14.65;3.53;;;7.20;46.00;;;;;;4973340;28;20185;-77
2022/11/25 06:33:07;;;;;;;13.98;3.47;;;7.10;33.40;;;;;;4973208;28;20034;-77
2022/11/25 06:35:33;;;;;;;20.17;4.00;;;7.10;37.20;;;;;;4973088;28;20524;-77
2022/11/25 06:37:59;;;;;;;10.23;3.50;;;7.10;30.20;;;;;;4973070;28;20019;-77
2022/11/25 06:40:24;;;;;;;12.25;3.53;;;7.00;26.80;;;;;;4973098;28;20019;-77
2022/11/25 06:42:50;;;;;;;9.57;3.42;;;6.90;18.10;;;;;;4973057;28;20023;-77
2022/11/25 06:45:15;;;;;;;13.65;3.72;;;6.90;12.40;;;;;;4973024;28;20054;-77
2022/11/25 06:47:41;;;;;;;12.82;3.70;;;6.80;6.70;;;;;;4972631;28;20078;-78
2022/11/25 06:50:07;;;;;;;10.45;3.33;;;6.80;10.50;;;;;;4972870;28;20082;-78
2022/11/25 06:52:32;;;;;;;14.93;3.58;;;6.70;5.40;;;;;;4972917;28;20382;-77
2022/11/25 06:54:58;;;;;;;12.07;4.13;;;6.80;7.60;;;;;;4972888;28;20027;-77
2022/11/25 06:57:24;;;;;;;11.82;4.00;;;6.80;1.00;;;;;;4972968;28;20611;-77
2022/11/25 06:59:50;;;;;;;17.08;4.70;;;6.80;1.00;;;;;;4972984;28;20035;-77
2022/11/25 07:02:16;;;;;;;13.93;3.95;;;6.80;1.00;;;;;;4972862;28;20369;-77
2022/11/25 07:04:42;;;;;;;10.73;3.97;;;6.70;1.00;;;;;;4972943;28;20458;-77
2022/11/25 07:07:08;;;;;;;10.77;3.63;;;6.70;1.00;;;;;;4972732;28;20023;-77
2022/11/25 07:09:34;;;;;;;10.18;3.83;;;6.70;1.00;;;;;;4972909;28;20046;-77
2022/11/25 07:11:59;;;;;;;13.70;3.60;;;6.70;1.00;;;;;;4974900;28;20018;-77
2022/11/25 07:14:25;;;;;;;12.80;4.20;;;6.60;1.00;;;;;;4976062;28;20102;-77
2022/11/25 07:16:51;;;;;;;9.25;3.40;;;6.70;1.00;;;;;;4992096;28;20026;-77
2022/11/25 07:19:17;;;;;;;9.43;3.53;;;6.70;1.00;;;;;;4976239;28;20365;-77
2022/11/25 07:21:44;;;;;;;12.43;4.18;;;6.60;1.00;;;;;;4975953;28;20347;-77
2022/11/25 07:24:13;;;;;;;9.68;4.30;;;6.50;1.00;;;;;;4975697;28;20026;-78
2022/11/25 07:26:40;;;;;;;17.40;4.28;;;6.50;1.00;;;;;;4975765;28;20023;-75
2022/11/25 07:29:14;;;;;;;8.70;4.10;;;6.60;1.00;;;;;;4975789;28;20077;-75
2022/11/25 07:31:44;;;;;;;13.63;4.70;;;6.40;1.00;;;;;;4975970;28;20019;-75
2022/11/25 07:34:19;;;;;;;11.93;4.15;;;6.40;1.00;;;;;;4976414;28;20096;-75
2022/11/25 07:36:47;;;;;;;10.18;5.40;;;6.40;1.00;;;;;;4975624;28;20035;-75
2022/11/25 07:39:16;;;;;;;15.18;5.15;;;6.60;1.00;;;;;;4975783;28;20019;-75
2022/11/25 07:41:42;;;;;;;22.45;9.13;;;6.40;1.00;;;;;;4975655;28;20066;-75
2022/11/25 07:44:11;;;;;;;15.50;6.32;;;6.40;1.00;;;;;;4975549;28;20065;-75
2022/11/25 07:46:40;;;;;;;10.18;5.30;;;6.50;1.00;;;;;;4975731;28;20027;-75
2022/11/25 07:49:10;;;;;;;14.35;5.25;;;6.50;1.00;;;;;;4975603;28;20031;-75
2022/11/25 07:51:37;;;;;;;;;;;6.60;1.00;;;;;;4976134;28;20049;-76
2022/11/25 07:54:05;;;;;;;12.75;5.25;;;6.50;1.00;;;;;;4975441;28;19906;-76
2022/11/25 07:56:33;;;;;;;13.38;5.65;;;6.70;1.00;;;;;;4975403;28;20027;-76
2022/11/25 07:58:59;;;;;;;11.48;5.15;;;6.70;1.00;;;;;;4975389;28;20026;-76
2022/11/25 08:01:25;;;;;;;10.75;5.70;;;6.70;1.00;;;;;;4975423;28;20019;-76
2022/11/25 08:03:50;;;;;;;16.10;5.78;;;6.90;1.00;;;;;;4975593;28;20358;-76
2022/11/25 08:06:19;;;;;;;14.45;5.47;;;6.80;1.00;;;;;;4994481;28;20034;-76
2022/11/25 08:08:45;;;;;;;11.35;6.07;;;6.80;99.90;;;;;;4994351;28;20110;-76
2022/11/25 08:11:14;;;;;;;15.80;6.03;;;7.00;99.90;;;;;;4994270;28;20026;-76
2022/11/25 08:13:40;;;;;;;11.68;6.05;;;7.10;99.90;;;;;;4994109;28;20061;-77
2022/11/25 08:16:06;;;;;;;15.05;5.90;;;7.10;99.90;;;;;;4986333;28;20070;-76
2022/11/25 08:18:32;;;;;;;16.42;7.18;;;7.20;99.90;;;;;;4974438;28;20458;-77
2022/11/25 08:20:59;;;;;;;11.82;6.20;;;7.80;99.90;;;;;;4974639;28;20098;-76
2022/11/25 08:23:26;;;;;;;14.13;6.78;;;8.40;99.90;;;;;;4974148;28;20117;-77
2022/11/25 08:25:51;;;;;;;16.48;6.70;;;8.10;99.90;;;;;;4974796;28;20081;-77
2022/11/25 08:28:17;;;;;;;18.85;7.03;;;8.00;31.70;;;;;;4974427;28;20453;-77
2022/11/25 08:30:43;;;;;;;13.88;6.10;;;8.20;1.00;;;;;;4957516;28;20030;-76
2022/11/25 08:33:09;;;;;;;14.13;6.90;;;8.70;99.90;;;;;;4974774;28;20362;-77
2022/11/25 08:35:37;;;;;;;11.85;6.20;;;8.60;99.90;;;;;;4989843;28;20030;-76
2022/11/25 08:38:08;;;;;;;12.20;6.13;;;8.40;99.90;;;;;;4976574;28;20038;-76
2022/11/25 08:40:35;;;;;;;13.25;6.55;;;8.30;99.90;;;;;;4994180;28;20454;-76
2022/11/25 08:43:01;;;;;;;12.15;6.68;;;8.20;99.90;;;;;;4994298;28;20026;-76
2022/11/25 08:45:27;;;;;;;13.82;6.65;;;8.20;99.90;;;;;;4993821;28;20031;-76
2022/11/25 08:47:53;;;;;;;11.25;5.88;;;8.20;99.90;;;;;;4993693;28;20046;-76
2022/11/25 08:50:19;;;;;;;12.20;6.68;;;8.20;99.90;;;;;;4993872;28;20110;-76
2022/11/25 08:52:44;;;;;;;13.48;6.05;;;8.20;99.90;;;;;;4993714;28;20026;-76
2022/11/25 08:55:10;;;;;;;11.60;6.10;;;8.30;99.90;;;;;;4993825;28;20026;-76
2022/11/25 08:57:36;;;;;;;14.02;5.35;;;8.30;99.90;;;;;;4993859;28;20376;-76
2022/11/25 09:00:04;;;;;;;12.73;5.30;;;8.30;99.90;;;;;;4993624;28;20449;-76
2022/11/25 09:02:29;;;;;;;13.70;6.03;;;8.30;99.90;;;;;;5003196;28;20389;-76
2022/11/25 09:04:55;;;;;;;16.55;6.10;;;8.30;99.90;;;;;;5013264;28;20022;-76
2022/11/25 09:07:20;;;;;;;10.13;4.88;;;8.40;99.90;;;;;;5013317;28;20030;-76
2022/11/25 09:09:46;;;;;;;12.93;4.95;;;8.40;99.90;;;;;;5013179;28;20026;-76
2022/11/25 09:12:11;;;;;;;9.02;4.15;;;8.50;99.90;;;;;;5013157;28;20022;-76
2022/11/25 09:14:39;;;;;;;8.88;4.32;;;8.40;99.90;;;;;;5013067;28;20487;-76
2022/11/25 09:17:11;;;;;;;14.13;4.97;;;8.50;99.90;;;;;;4998826;28;20038;-77
2022/11/25 09:19:36;;;;;;;10.30;4.80;;;8.60;99.90;;;;;;4992271;28;20026;-76
2022/11/25 09:22:02;;;;;;;7.85;4.55;;;8.50;99.90;;;;;;4992199;28;20022;-76
2022/11/25 09:24:28;;;;;;;12.00;4.53;;;8.40;99.90;;;;;;4982108;28;20030;-77
2022/11/25 09:26:54;;;;;;;10.50;3.97;;;8.80;99.90;;;;;;4973204;28;20038;-76
2022/11/25 09:29:20;;;;;;;10.50;3.85;;;8.90;99.90;;;;;;4978091;28;20489;-76
2022/11/25 09:31:45;;;;;;;10.10;4.53;;;9.10;99.90;;;;;;4985823;28;20026;-76
2022/11/25 09:34:11;;;;;;;16.17;4.50;;;9.50;99.90;;;;;;4989152;28;20019;-77
2022/11/25 09:36:37;;;;;;;11.55;4.35;;;9.90;99.90;;;;;;4992909;28;20161;-76
2022/11/25 09:39:03;;;;;;;12.30;3.90;;;9.80;99.90;;;;;;4992900;28;20026;-76
2022/11/25 09:48:07;;;;;;;10.95;4.07;;;10.10;99.90;;;;;;4981426;28;20104;-77
2022/11/25 09:50:54;;;;;;;10.10;3.80;;;10.40;99.90;;;;;;4993382;28;20025;-77
2022/11/25 09:53:49;;;;;;;10.25;3.33;;;10.60;99.90;;;;;;4992313;28;20027;-77
2022/11/25 09:56:46;;;;;;;12.80;4.43;;;10.40;99.90;;;;;;4971517;28;20126;-77
2022/11/25 09:59:26;;;;;;;9.98;3.50;;;10.10;99.90;;;;;;4982310;28;20048;-77
2022/11/25 10:02:09;;;;;;;13.65;3.38;;;10.00;99.90;;;;;;4983673;28;20027;-77
2022/11/25 10:04:48;;;;;;;8.93;3.40;;;10.00;99.90;;;;;;4994236;28;20728;-77
2022/11/25 10:07:36;;;;;;;9.50;3.38;;;10.50;99.90;;;;;;5000517;28;20023;-77
2022/11/25 10:10:05;;;;;;;13.35;3.38;;;10.60;99.90;;;;;;4999294;28;20057;-77
2022/11/25 10:12:41;;;;;;;5.80;3.15;;;10.40;99.90;;;;;;4992822;28;20098;-77
2022/11/25 10:15:40;;;;;;;7.05;2.95;;;10.20;99.90;;;;;;4992003;28;20022;-78
2022/11/25 10:18:18;;;;;;;7.28;3.08;;;10.10;99.90;;;;;;4992176;28;20063;-76
2022/11/25 10:20:45;;;;;;;9.48;3.25;;;10.20;99.90;;;;;;4992541;28;20023;-76
2022/11/25 10:23:18;;;;;;;9.15;2.80;;;10.60;99.90;;;;;;4992427;28;20022;-76
2022/11/25 10:25:47;;;;;;;10.60;2.53;;;11.10;99.90;;;;;;4992579;28;20030;-76
2022/11/25 10:28:20;;;;;;;13.40;3.33;;;11.30;99.90;;;;;;4992315;28;20099;-76
2022/11/25 10:31:25;;;;;;;16.40;3.35;;;11.30;99.90;;;;;;4992438;28;20023;-76
2022/11/25 10:33:53;;;;;;;11.80;2.85;;;11.40;99.90;;;;;;4928261;29;20039;-77
2022/11/25 10:36:32;;;;;;;7.35;2.72;;;11.40;99.90;;;;;;4979609;28;20057;-76
2022/11/25 10:39:16;;;;;;;8.43;2.80;;;11.40;99.90;;;;;;4992156;28;20033;-76
2022/11/25 10:42:18;;;;;;;12.48;3.47;;;11.20;99.90;;;;;;4992432;28;20026;-76
2022/11/25 10:44:44;;;;;;;14.18;4.93;;;11.20;99.90;;;;;;4993065;28;20034;-76
2022/11/25 10:47:19;;;;;;;12.93;2.75;;;11.60;99.90;;;;;;4995870;28;20058;-77
2022/11/25 10:49:50;;;;;;;5.63;2.45;;;11.50;99.90;;;;;;4995818;28;20050;-76
2022/11/25 10:52:21;;;;;;;6.80;2.67;;;11.40;99.90;;;;;;4995707;28;20667;-76
2022/11/25 10:55:12;;;;;;;7.97;2.80;;;11.50;99.90;;;;;;4995963;28;20073;-76
2022/11/25 10:57:38;;;;;;;11.93;2.90;;;11.30;99.90;;;;;;4996095;28;20038;-77
2022/11/25 11:00:06;;;;;;;13.25;3.35;;;11.30;99.90;;;;;;4996023;28;20563;-76
2022/11/25 11:02:34;;;;;;;10.82;3.15;;;11.30;99.90;;;;;;4996098;28;20019;-76
2022/11/25 11:05:09;;;;;;;11.68;2.88;;;11.60;99.90;;;;;;4995857;28;20023;-76
2022/11/25 11:07:41;;;;;;;11.70;2.40;;;11.80;99.90;;;;;;4995786;28;20026;-75
2022/11/25 11:10:23;;;;;;;10.35;2.53;;;11.70;99.90;;;;;;4996107;28;20467;-76
2022/11/25 11:12:49;;;;;;;11.07;2.45;;;12.00;99.90;;;;;;4996117;28;20023;-76
2022/11/25 11:15:41;;;;;;;10.43;2.53;;;11.80;99.90;;;;;;4995652;28;20023;-76
2022/11/25 11:18:26;;;;;;;12.80;3.13;;;11.80;99.90;;;;;;4987438;28;20038;-77
2022/11/25 11:20:54;;;;;;;8.88;2.30;;;12.10;99.10;;;;;;4995747;28;20038;-77
2022/11/25 11:23:21;;;;;;;11.82;2.60;;;11.90;99.90;;;;;;4995479;28;20097;-76
2022/11/25 11:26:04;;;;;;;10.70;3.15;;;11.90;99.90;;;;;;4994429;28;20031;-77
2022/11/25 11:28:38;;;;;;;12.00;2.90;;;11.80;99.00;;;;;;4976066;28;20098;-77
2022/11/25 11:31:27;;;;;;;13.32;3.28;;;11.90;99.90;;;;;;4976137;28;20046;-76
2022/11/25 11:34:00;;;;;;;14.65;3.03;;;11.70;99.90;;;;;;4975831;28;20567;-77
2022/11/25 11:36:31;;;;;;;13.65;3.08;;;11.70;99.90;;;;;;4975592;28;20031;-76
2022/11/25 11:39:38;;;;;;;10.65;2.53;;;11.40;99.90;;;;;;4975697;28;20131;-77
2022/11/25 11:42:25;;;;;;;11.45;2.25;;;11.20;99.90;;;;;;4948390;28;20107;-77
2022/11/25 11:45:08;;;;;;;13.57;2.58;;;11.10;99.90;;;;;;4975658;28;20546;-76
2022/11/25 11:47:52;;;;;;;9.45;2.50;;;11.10;99.90;;;;;;4975019;28;20110;-77
2022/11/25 11:50:24;;;;;;;8.88;2.25;;;11.10;99.90;;;;;;4975688;28;20113;-77
2022/11/25 11:53:08;;;;;;;10.30;2.55;;;11.30;99.90;;;;;;4988319;28;20026;-76
2022/11/25 11:56:05;;;;;;;14.13;2.70;;;11.30;99.90;;;;;;4994911;28;20034;-76
2022/11/25 11:59:19;;;;;;;17.23;2.72;;;11.20;99.90;;;;;;4994442;28;20492;-76
2022/11/25 12:02:08;;;;;;;10.77;2.50;;;11.30;99.90;;;;;;4992895;28;20039;-76
2022/11/25 12:04:43;;;;;;;7.50;2.05;;;11.30;99.90;;;;;;4994043;28;20109;-76
2022/11/25 12:07:21;;;;;;;15.48;2.42;;;11.20;99.90;;;;;;4995229;28;20010;-76
2022/11/25 12:09:54;;;;;;;15.60;3.65;;;11.40;99.90;;;;;;4991312;28;20054;-76
2022/11/25 12:12:25;;;;;;;17.20;3.47;;;11.50;99.90;;;;;;4958132;28;20029;-76
2022/11/25 12:14:59;;;;;;;14.75;3.83;;;11.80;99.90;;;;;;4975627;28;20033;-76
2022/11/25 12:17:34;;;;;;;10.82;3.25;;;11.90;99.90;;;;;;4975650;28;20043;-76
2022/11/25 12:20:17;;;;;;;17.02;5.10;;;11.70;99.90;;;;;;4983745;28;20034;-76
2022/11/25 12:23:10;;;;;;;14.80;3.15;;;11.80;99.90;;;;;;4994599;28;20022;-77
2022/11/25 12:25:40;;;;;;;15.73;3.25;;;11.60;99.90;;;;;;4996514;28;20453;-76
2022/11/25 12:28:21;;;;;;;9.65;2.53;;;11.40;99.90;;;;;;4977004;28;20030;-75
2022/11/25 12:31:06;;;;;;;12.18;2.97;;;11.40;99.90;;;;;;4976263;28;20038;-75
2022/11/25 12:33:56;;;;;;;10.02;1.98;;;11.70;99.90;;;;;;4994063;28;20026;-76
2022/11/25 12:36:32;;;;;;;17.55;2.35;;;12.00;97.80;;;;;;4978281;28;20039;-76
2022/11/25 12:39:11;;;;;;;11.68;1.63;;;12.10;93.20;;;;;;4974597;28;20495;-76
2022/11/25 12:41:47;;;;;;;12.43;2.00;;;12.20;90.00;;;;;;4974619;28;20031;-76
2022/11/25 12:44:26;;;;;;;12.27;1.90;;;12.10;93.20;;;;;;4974625;28;20031;-76
2022/11/25 12:46:54;;;;;;;9.05;1.77;;;12.00;91.60;;;;;;4973912;28;20618;-76
2022/11/25 12:49:23;;;;;;;8.25;1.90;;;12.00;92.00;;;;;;4974255;28;20041;-76
2022/11/25 12:52:25;;;;;;;13.07;2.53;;;12.10;92.80;;;;;;4974293;28;20377;-76
2022/11/25 12:55:12;;;;;;;13.55;2.10;;;12.20;92.60;;;;;;4974359;28;20031;-76
2022/11/25 12:57:55;;;;;;;17.02;2.42;;;12.30;89.40;;;;;;4993799;28;20100;-76
2022/11/25 13:00:25;;;;;;;10.50;1.90;;;12.30;89.40;;;;;;4993728;28;20473;-76
2022/11/25 13:03:11;;;;;;;15.10;3.15;;;12.10;89.00;;;;;;4993702;28;20119;-75
2022/11/25 13:06:04;;;;;;;20.38;5.60;;;12.10;90.30;;;;;;4989291;28;20432;-76
2022/11/25 13:08:55;;;;;;;13.90;4.65;;;12.20;92.10;;;;;;4974170;28;20098;-76
2022/11/25 13:11:32;;;;;;;15.25;3.30;;;12.20;89.80;;;;;;4974127;28;20061;-75